Time;durP1;ratioP1;P1;durP2;ratioP2;P2;SDS_P1;SDS_P2;PMS_P1;PMS_P2;Temp;Humidity;BMP_temperature;BMP_pressure;BME280_temperature;BME280_humidity;BME280_pressure;Samples;Min_cycle;Max_cycle;Signal;HPM_P1;HPM_P2
2023/02/24 00:00:29;;;;;;;25.47;6.53;;;;;;;;;;6208409;23;20181;-79
2023/02/24 00:02:49;;;;;;;13.73;3.23;;;;;;;;;;6209681;23;20162;-79
2023/02/24 00:05:15;;;;;;;15.70;4.90;;;;;;;;;;6207882;23;20154;-80
2023/02/24 00:07:40;;;;;;;16.93;3.43;;;;;;;;;;6209196;23;20201;-79
2023/02/24 00:10:08;;;;;;;19.93;3.90;;;;;;;;;;6210054;23;20589;-80
2023/02/24 00:12:34;;;;;;;18.33;3.60;;;;;;;;;;6208625;23;20168;-79
2023/02/24 00:15:00;;;;;;;17.50;3.17;;;;;;;;;;6207509;23;20169;-80
2023/02/24 00:17:29;;;;;;;13.60;3.67;;;;;;;;;;6209221;23;20174;-79
2023/02/24 00:19:55;;;;;;;16.30;3.13;;;;;;;;;;6208342;23;20610;-80
2023/02/24 00:22:21;;;;;;;16.13;3.53;;;;;;;;;;6209489;23;20146;-79
2023/02/24 00:24:47;;;;;;;15.27;3.30;;;;;;;;;;6209468;23;20489;-79
2023/02/24 00:27:13;;;;;;;19.13;2.80;;;;;;;;;;6209738;23;20180;-79
2023/02/24 00:29:40;;;;;;;14.73;2.90;;;;;;;;;;6209740;23;20204;-79
2023/02/24 00:32:11;;;;;;;14.00;3.33;;;;;;;;;;6209654;23;20205;-79
2023/02/24 00:34:37;;;;;;;14.63;2.90;;;;;;;;;;6209498;23;20184;-79
2023/02/24 00:37:08;;;;;;;16.60;3.43;;;;;;;;;;6208962;23;20661;-79
2023/02/24 00:39:34;;;;;;;14.77;2.70;;;;;;;;;;6209409;23;20135;-78
2023/02/24 00:42:03;;;;;;;15.10;3.10;;;;;;;;;;6209725;23;20161;-78
2023/02/24 00:44:45;;;;;;;14.10;3.63;;;;;;;;;;6207678;23;20162;-79
2023/02/24 00:47:12;;;;;;;20.13;2.63;;;;;;;;;;6208963;23;20182;-79
2023/02/24 00:49:40;;;;;;;17.93;3.17;;;;;;;;;;6209374;23;20162;-79
2023/02/24 00:52:07;;;;;;;14.40;2.87;;;;;;;;;;6207951;23;20158;-78
2023/02/24 00:54:36;;;;;;;15.67;3.10;;;;;;;;;;6209159;23;20162;-80
2023/02/24 00:57:03;;;;;;;14.90;2.77;;;;;;;;;;6208963;23;20602;-79
2023/02/24 00:59:29;;;;;;;18.43;4.13;;;;;;;;;;6209897;23;20660;-80
2023/02/24 01:01:55;;;;;;;16.57;3.13;;;;;;;;;;6209420;23;20154;-80
2023/02/24 01:04:21;;;;;;;12.63;3.00;;;;;;;;;;6209064;23;20157;-79
2023/02/24 01:06:49;;;;;;;16.83;3.10;;;;;;;;;;6208957;23;20150;-79
2023/02/24 01:09:16;;;;;;;11.93;2.50;;;;;;;;;;6209469;23;20178;-79
2023/02/24 01:14:29;;;;;;;15.23;3.37;;;;;;;;;;6209607;23;20165;-79
2023/02/24 01:16:56;;;;;;;21.27;3.57;;;;;;;;;;6208429;23;20186;-79
2023/02/24 01:19:30;;;;;;;13.63;2.47;;;;;;;;;;6208660;23;20245;-79
2023/02/24 01:21:57;;;;;;;11.93;2.60;;;;;;;;;;6209695;23;20131;-79
2023/02/24 01:24:24;;;;;;;10.93;2.27;;;;;;;;;;6209622;23;20198;-79
2023/02/24 01:26:50;;;;;;;15.80;2.83;;;;;;;;;;6209633;23;20155;-79
2023/02/24 01:29:16;;;;;;;9.60;2.50;;;;;;;;;;6209429;23;20154;-79
2023/02/24 01:31:42;;;;;;;17.70;2.83;;;;;;;;;;6209978;23;20146;-79
2023/02/24 01:34:09;;;;;;;13.67;3.30;;;;;;;;;;6209853;23;20150;-80
2023/02/24 01:36:36;;;;;;;12.93;3.17;;;;;;;;;;6207852;23;20190;-79
2023/02/24 01:39:04;;;;;;;16.90;3.00;;;;;;;;;;6209367;23;20174;-79
2023/02/24 01:41:31;;;;;;;14.20;3.10;;;;;;;;;;6209399;23;20151;-79
2023/02/24 01:43:58;;;;;;;16.63;4.47;;;;;;;;;;6209654;23;20628;-79
2023/02/24 01:46:29;;;;;;;14.50;3.10;;;;;;;;;;6209930;23;20150;-80
2023/02/24 01:48:57;;;;;;;15.90;2.90;;;;;;;;;;6209484;23;20170;-79
2023/02/24 01:51:26;;;;;;;18.27;3.30;;;;;;;;;;6209768;23;20166;-80
2023/02/24 01:53:51;;;;;;;13.50;3.23;;;;;;;;;;6209145;23;20603;-78
2023/02/24 01:56:18;;;;;;;15.63;2.93;;;;;;;;;;6208557;23;20243;-79
2023/02/24 01:58:44;;;;;;;17.83;3.20;;;;;;;;;;6209184;23;20193;-79
2023/02/24 02:01:10;;;;;;;20.33;3.70;;;;;;;;;;6209459;23;20599;-79
2023/02/24 02:03:40;;;;;;;13.50;3.97;;;;;;;;;;6209728;23;20158;-79
2023/02/24 02:06:07;;;;;;;17.47;3.20;;;;;;;;;;6208765;23;20178;-79
2023/02/24 02:08:35;;;;;;;16.77;3.60;;;;;;;;;;6207442;23;20985;-80
2023/02/24 02:11:05;;;;;;;15.43;3.23;;;;;;;;;;6209245;23;20163;-79
2023/02/24 02:13:34;;;;;;;23.17;4.73;;;;;;;;;;6209250;23;20161;-79
2023/02/24 02:16:10;;;;;;;17.20;3.70;;;;;;;;;;6209325;23;20198;-79
2023/02/24 02:18:47;;;;;;;18.40;4.20;;;;;;;;;;6206908;23;20718;-79
2023/02/24 02:21:17;;;;;;;14.90;3.30;;;;;;;;;;6209225;23;20142;-79
2023/02/24 02:23:43;;;;;;;18.53;3.53;;;;;;;;;;6208499;23;20154;-79
2023/02/24 02:26:34;;;;;;;18.93;3.70;;;;;;;;;;6208723;23;20161;-78
2023/02/24 02:29:15;;;;;;;18.33;4.10;;;;;;;;;;6208874;23;20178;-79
2023/02/24 02:32:02;;;;;;;15.43;3.80;;;;;;;;;;6208906;23;20529;-78
2023/02/24 02:34:37;;;;;;;21.00;4.07;;;;;;;;;;6210056;23;20269;-79
2023/02/24 02:37:18;;;;;;;14.83;4.30;;;;;;;;;;6208806;23;20513;-78
2023/02/24 02:39:51;;;;;;;23.30;4.20;;;;;;;;;;6209215;23;20150;-79
2023/02/24 02:42:36;;;;;;;20.30;3.87;;;;;;;;;;6208410;23;20155;-78
2023/02/24 02:45:06;;;;;;;18.03;3.97;;;;;;;;;;6208607;23;20166;-79
2023/02/24 02:47:45;;;;;;;17.93;3.53;;;;;;;;;;6209211;23;20179;-79
2023/02/24 02:50:17;;;;;;;20.23;4.13;;;;;;;;;;6210471;23;20150;-80
2023/02/24 02:52:47;;;;;;;14.87;3.23;;;;;;;;;;6208915;23;20170;-79
2023/02/24 02:55:26;;;;;;;16.67;3.47;;;;;;;;;;6211195;23;20599;-79
2023/02/24 02:57:54;;;;;;;23.07;3.90;;;;;;;;;;6210106;23;20192;-79
2023/02/24 03:00:34;;;;;;;19.13;3.07;;;;;;;;;;6209663;23;20154;-79
2023/02/24 03:03:08;;;;;;;20.57;3.70;;;;;;;;;;6211058;23;20161;-79
2023/02/24 03:05:37;;;;;;;14.17;3.03;;;;;;;;;;6211432;23;20146;-79
2023/02/24 03:08:05;;;;;;;15.00;3.47;;;;;;;;;;6210728;23;20178;-79
2023/02/24 03:10:33;;;;;;;13.63;3.27;;;;;;;;;;6209251;23;20619;-80
2023/02/24 03:13:00;;;;;;;18.20;3.07;;;;;;;;;;6210532;23;20154;-79
2023/02/24 03:15:29;;;;;;;13.73;2.97;;;;;;;;;;6210316;23;20618;-79
2023/02/24 03:18:00;;;;;;;14.93;3.57;;;;;;;;;;6210270;23;20170;-79
2023/02/24 03:20:32;;;;;;;12.37;3.10;;;;;;;;;;6210543;23;20225;-79
2023/02/24 03:23:03;;;;;;;11.40;2.37;;;;;;;;;;6210585;23;20143;-79
2023/02/24 03:25:37;;;;;;;11.10;2.97;;;;;;;;;;6210256;23;20139;-80
2023/02/24 03:28:05;;;;;;;10.83;2.03;;;;;;;;;;6210383;23;20171;-78
2023/02/24 03:30:40;;;;;;;16.27;2.50;;;;;;;;;;6210899;23;20158;-79
2023/02/24 03:33:19;;;;;;;12.80;2.87;;;;;;;;;;6208628;23;20156;-80
2023/02/24 03:35:45;;;;;;;12.17;2.27;;;;;;;;;;6209820;23;20170;-79
2023/02/24 03:38:13;;;;;;;12.37;2.33;;;;;;;;;;6208793;23;20181;-80
2023/02/24 03:40:42;;;;;;;12.97;2.73;;;;;;;;;;6210297;23;20151;-80
2023/02/24 03:43:08;;;;;;;15.10;2.87;;;;;;;;;;6210113;23;20244;-79
2023/02/24 03:45:36;;;;;;;14.17;2.40;;;;;;;;;;6208963;23;20610;-79
2023/02/24 03:48:03;;;;;;;11.27;2.70;;;;;;;;;;6210162;23;20202;-79
2023/02/24 03:50:31;;;;;;;13.13;2.20;;;;;;;;;;6210340;23;20204;-80
2023/02/24 03:53:15;;;;;;;16.10;3.80;;;;;;;;;;6210092;23;20163;-79
2023/02/24 03:55:59;;;;;;;10.57;2.50;;;;;;;;;;6209981;23;20180;-80
2023/02/24 03:58:45;;;;;;;12.87;2.43;;;;;;;;;;6209649;23;20181;-79
2023/02/24 04:01:17;;;;;;;10.17;2.07;;;;;;;;;;6210139;23;20172;-79
2023/02/24 04:03:43;;;;;;;11.00;2.60;;;;;;;;;;6209668;23;20491;-80
2023/02/24 04:06:19;;;;;;;13.17;2.53;;;;;;;;;;6210355;23;20150;-79
2023/02/24 04:08:50;;;;;;;15.02;2.53;;;;;;;;;;6207792;23;20369;-79
2023/02/24 04:11:19;;;;;;;7.80;2.10;;;;;;;;;;6210137;23;20142;-79
2023/02/24 04:13:50;;;;;;;10.60;2.53;;;;;;;;;;6209270;23;20525;-78
2023/02/24 04:16:26;;;;;;;10.67;2.30;;;;;;;;;;6209454;23;20550;-79
2023/02/24 04:18:53;;;;;;;11.50;3.23;;;;;;;;;;6209646;23;20177;-79
2023/02/24 04:21:19;;;;;;;15.33;2.83;;;;;;;;;;6209823;23;20225;-80
2023/02/24 04:23:46;;;;;;;10.13;1.87;;;;;;;;;;6209582;23;20154;-80
2023/02/24 04:26:13;;;;;;;7.50;2.10;;;;;;;;;;6207706;23;20162;-79
2023/02/24 04:28:40;;;;;;;10.70;1.93;;;;;;;;;;6209750;23;20174;-79
2023/02/24 04:31:09;;;;;;;12.30;2.40;;;;;;;;;;6209534;23;20212;-79
2023/02/24 04:33:39;;;;;;;8.40;2.57;;;;;;;;;;6207278;23;20177;-80
2023/02/24 04:36:07;;;;;;;10.27;3.00;;;;;;;;;;6207103;23;20205;-79
2023/02/24 04:38:33;;;;;;;11.30;3.20;;;;;;;;;;6209133;23;20170;-80
2023/02/24 04:40:59;;;;;;;11.10;3.27;;;;;;;;;;6209195;23;20165;-79
2023/02/24 04:43:25;;;;;;;8.80;2.43;;;;;;;;;;6208800;23;20183;-79
2023/02/24 04:45:51;;;;;;;10.20;2.40;;;;;;;;;;6208084;23;20166;-79
2023/02/24 04:48:19;;;;;;;13.07;2.93;;;;;;;;;;6207388;23;20229;-78
2023/02/24 04:50:45;;;;;;;10.67;2.00;;;;;;;;;;6209315;23;20614;-79
2023/02/24 04:53:13;;;;;;;15.27;2.47;;;;;;;;;;6209230;23;20154;-79
2023/02/24 04:55:41;;;;;;;15.13;3.00;;;;;;;;;;6208750;23;20229;-79
2023/02/24 04:58:11;;;;;;;9.23;2.50;;;;;;;;;;6208667;23;20288;-79
2023/02/24 05:00:40;;;;;;;10.00;2.40;;;;;;;;;;6208944;23;20146;-80
2023/02/24 05:03:06;;;;;;;7.53;2.33;;;;;;;;;;6209800;23;20233;-79
2023/02/24 05:05:33;;;;;;;12.43;2.43;;;;;;;;;;6209151;23;20157;-80
2023/02/24 05:08:01;;;;;;;13.40;2.00;;;;;;;;;;6209150;23;20185;-79
2023/02/24 05:10:28;;;;;;;9.03;2.20;;;;;;;;;;6209161;23;20189;-80
2023/02/24 05:12:58;;;;;;;11.47;2.23;;;;;;;;;;6207143;23;20580;-79
2023/02/24 05:15:31;;;;;;;8.70;2.03;;;;;;;;;;6208438;23;20184;-79
2023/02/24 05:18:06;;;;;;;9.73;2.30;;;;;;;;;;6206929;23;20213;-79
2023/02/24 05:23:24;;;;;;;6.97;2.53;;;;;;;;;;6208472;23;20213;-78
2023/02/24 05:25:53;;;;;;;7.93;2.33;;;;;;;;;;6208349;23;20654;-78
2023/02/24 05:28:21;;;;;;;11.53;2.60;;;;;;;;;;6206508;23;20182;-79
2023/02/24 05:30:48;;;;;;;10.37;3.10;;;;;;;;;;6206912;23;20374;-80
2023/02/24 05:33:13;;;;;;;10.97;3.03;;;;;;;;;;6208025;23;20150;-79
2023/02/24 05:35:40;;;;;;;4.67;1.57;;;;;;;;;;6207549;23;20241;-79
2023/02/24 05:38:07;;;;;;;10.40;2.27;;;;;;;;;;6207133;23;20170;-79
2023/02/24 05:40:33;;;;;;;10.77;2.43;;;;;;;;;;6207398;23;20174;-79
2023/02/24 05:43:03;;;;;;;7.13;1.97;;;;;;;;;;6208553;23;20201;-80
2023/02/24 05:45:29;;;;;;;8.33;2.20;;;;;;;;;;6207584;23;20502;-79
2023/02/24 05:47:55;;;;;;;7.00;2.20;;;;;;;;;;6209052;23;20237;-80
2023/02/24 05:50:25;;;;;;;5.47;1.77;;;;;;;;;;6209364;23;20593;-79
2023/02/24 05:52:51;;;;;;;9.53;2.17;;;;;;;;;;6209506;23;20158;-79
2023/02/24 05:55:17;;;;;;;8.23;1.57;;;;;;;;;;6207399;23;20197;-78
2023/02/24 05:57:43;;;;;;;11.37;2.20;;;;;;;;;;6208564;23;20209;-81
2023/02/24 06:00:14;;;;;;;8.57;2.20;;;;;;;;;;6209015;23;20587;-79
2023/02/24 06:02:48;;;;;;;8.13;2.30;;;;;;;;;;6208433;23;20138;-79
2023/02/24 06:05:24;;;;;;;4.37;1.60;;;;;;;;;;6209028;23;20165;-80
2023/02/24 06:07:50;;;;;;;7.87;1.80;;;;;;;;;;6211543;23;20214;-78
2023/02/24 06:10:16;;;;;;;5.97;1.90;;;;;;;;;;6209177;23;20158;-79
2023/02/24 06:12:42;;;;;;;7.17;1.57;;;;;;;;;;6211000;23;20484;-79
2023/02/24 06:15:08;;;;;;;8.33;1.97;;;;;;;;;;6210537;23;20150;-80
2023/02/24 06:17:34;;;;;;;6.10;1.47;;;;;;;;;;6210893;23;20248;-81
2023/02/24 06:20:00;;;;;;;5.67;1.50;;;;;;;;;;6210677;23;20154;-80
2023/02/24 06:22:27;;;;;;;8.33;1.97;;;;;;;;;;6209301;23;20159;-80
2023/02/24 06:24:53;;;;;;;6.03;1.40;;;;;;;;;;6210090;23;20208;-79
2023/02/24 06:27:20;;;;;;;7.80;2.20;;;;;;;;;;6206310;23;20658;-79
2023/02/24 06:29:50;;;;;;;7.73;2.67;;;;;;;;;;6208316;23;20242;-78
2023/02/24 06:32:19;;;;;;;7.40;1.43;;;;;;;;;;6208099;23;20182;-79
2023/02/24 06:34:45;;;;;;;6.50;1.60;;;;;;;;;;6208421;23;20139;-79
2023/02/24 06:37:13;;;;;;;4.37;1.50;;;;;;;;;;6208261;23;20186;-79
2023/02/24 06:39:39;;;;;;;7.97;1.37;;;;;;;;;;6210167;23;20157;-79
2023/02/24 06:42:07;;;;;;;5.47;1.60;;;;;;;;;;6208497;23;20151;-78
2023/02/24 06:44:34;;;;;;;4.83;1.10;;;;;;;;;;6210319;23;20177;-80
2023/02/24 06:47:00;;;;;;;6.30;1.33;;;;;;;;;;6208184;23;20154;-79
2023/02/24 06:49:27;;;;;;;6.07;1.40;;;;;;;;;;6208849;23;20163;-79
2023/02/24 06:51:59;;;;;;;6.20;1.37;;;;;;;;;;6209431;23;20533;-80
2023/02/24 06:54:29;;;;;;;3.30;1.20;;;;;;;;;;6209832;23;20143;-79
2023/02/24 06:56:56;;;;;;;6.23;1.40;;;;;;;;;;6209256;23;20525;-79
2023/02/24 06:59:27;;;;;;;5.63;1.27;;;;;;;;;;6209214;23;20153;-79
2023/02/24 07:01:53;;;;;;;11.63;4.17;;;;;;;;;;6209912;23;20523;-79
2023/02/24 07:04:19;;;;;;;5.57;1.27;;;;;;;;;;6209594;23;20162;-78
2023/02/24 07:06:54;;;;;;;7.30;1.70;;;;;;;;;;6208874;23;20237;-79
2023/02/24 07:09:22;;;;;;;4.40;1.37;;;;;;;;;;6210478;23;20150;-80
2023/02/24 07:11:51;;;;;;;5.03;1.53;;;;;;;;;;6210740;23;20181;-80
2023/02/24 07:14:17;;;;;;;7.03;1.73;;;;;;;;;;6208828;23;20158;-80
2023/02/24 07:16:44;;;;;;;4.60;1.50;;;;;;;;;;6209362;23;20171;-80
2023/02/24 07:19:14;;;;;;;5.47;1.63;;;;;;;;;;6210662;23;20237;-79
2023/02/24 07:21:49;;;;;;;5.07;0.97;;;;;;;;;;6208528;23;20158;-80
2023/02/24 07:24:23;;;;;;;4.97;1.30;;;;;;;;;;6209930;23;20184;-80
2023/02/24 07:26:55;;;;;;;4.77;1.00;;;;;;;;;;6209507;23;20137;-80
2023/02/24 07:29:22;;;;;;;6.07;1.33;;;;;;;;;;6210154;23;20172;-79
2023/02/24 07:31:47;;;;;;;7.10;1.30;;;;;;;;;;6208413;23;20168;-80
2023/02/24 07:34:13;;;;;;;3.83;1.70;;;;;;;;;;6209810;23;20158;-79
2023/02/24 07:36:48;;;;;;;4.20;1.20;;;;;;;;;;6209584;23;20201;-79
2023/02/24 07:39:14;;;;;;;5.30;1.17;;;;;;;;;;6210605;23;20180;-80
2023/02/24 07:41:45;;;;;;;2.43;0.80;;;;;;;;;;6210226;23;20182;-79
2023/02/24 07:44:12;;;;;;;5.10;1.20;;;;;;;;;;6208920;23;20131;-79
2023/02/24 07:46:39;;;;;;;4.77;1.30;;;;;;;;;;6209022;23;20146;-79
2023/02/24 07:49:08;;;;;;;3.97;1.10;;;;;;;;;;6208786;23;20181;-79
2023/02/24 07:51:34;;;;;;;4.53;1.20;;;;;;;;;;6208843;23;20149;-78
2023/02/24 07:54:02;;;;;;;6.03;1.70;;;;;;;;;;6206750;23;20203;-80
2023/02/24 07:56:29;;;;;;;3.30;1.00;;;;;;;;;;6207989;23;20194;-79
2023/02/24 07:59:08;;;;;;;5.13;0.90;;;;;;;;;;6208620;23;20170;-80
2023/02/24 08:01:37;;;;;;;5.27;1.10;;;;;;;;;;6208840;23;20138;-79
2023/02/24 08:04:06;;;;;;;4.87;1.27;;;;;;;;;;6205974;23;20281;-79
2023/02/24 08:06:37;;;;;;;3.43;0.87;;;;;;;;;;6207991;23;20165;-79
2023/02/24 08:09:17;;;;;;;4.37;0.90;;;;;;;;;;6206567;23;20174;-79
2023/02/24 08:11:56;;;;;;;3.37;0.90;;;;;;;;;;6206452;23;20228;-80
2023/02/24 08:14:22;;;;;;;5.90;1.03;;;;;;;;;;6207498;23;20154;-79
2023/02/24 08:16:49;;;;;;;3.63;1.00;;;;;;;;;;6207835;23;20178;-80
2023/02/24 08:19:19;;;;;;;3.30;1.07;;;;;;;;;;6207137;23;20790;-79
2023/02/24 08:21:49;;;;;;;2.57;0.90;;;;;;;;;;6206117;23;20136;-79
2023/02/24 08:24:16;;;;;;;2.80;0.90;;;;;;;;;;6207311;23;20193;-79
2023/02/24 08:27:03;;;;;;;2.40;0.87;;;;;;;;;;6205012;23;20161;-78
2023/02/24 08:29:30;;;;;;;3.63;0.90;;;;;;;;;;6204654;23;20530;-78
2023/02/24 08:31:57;;;;;;;1.87;1.07;;;;;;;;;;6206420;23;20151;-78
2023/02/24 08:34:26;;;;;;;6.13;1.07;;;;;;;;;;6206796;23;20245;-79
2023/02/24 08:36:54;;;;;;;4.63;1.10;;;;;;;;;;6206383;23;20170;-78
2023/02/24 08:39:21;;;;;;;3.90;1.00;;;;;;;;;;6206587;23;20158;-78
2023/02/24 08:41:50;;;;;;;5.97;1.00;;;;;;;;;;6205141;23;20602;-78
2023/02/24 08:44:19;;;;;;;8.60;1.30;;;;;;;;;;6203999;23;20166;-78
2023/02/24 08:46:48;;;;;;;5.33;1.00;;;;;;;;;;6203580;23;20549;-77
2023/02/24 08:49:15;;;;;;;4.57;0.90;;;;;;;;;;6204013;23;20162;-79
2023/02/24 08:51:45;;;;;;;4.03;0.80;;;;;;;;;;6205075;23;20760;-80
2023/02/24 08:54:16;;;;;;;5.93;0.90;;;;;;;;;;6204892;23;20162;-79
2023/02/24 08:56:43;;;;;;;4.93;1.10;;;;;;;;;;6203727;23;20178;-80
2023/02/24 08:59:36;;;;;;;3.97;0.90;;;;;;;;;;6202832;23;20182;-79
2023/02/24 09:02:23;;;;;;;5.50;0.80;;;;;;;;;;6205228;23;20138;-80
2023/02/24 09:05:02;;;;;;;6.30;1.20;;;;;;;;;;6203160;23;20614;-79
2023/02/24 09:07:34;;;;;;;2.13;0.93;;;;;;;;;;6203855;23;20225;-79
2023/02/24 09:10:00;;;;;;;5.33;1.00;;;;;;;;;;6204009;23;20174;-79
2023/02/24 09:12:27;;;;;;;7.93;1.70;;;;;;;;;;6207315;23;20178;-79
2023/02/24 09:15:03;;;;;;;5.93;1.30;;;;;;;;;;6207271;23;20178;-79
2023/02/24 09:17:39;;;;;;;5.87;1.10;;;;;;;;;;6204307;23;20243;-80
2023/02/24 09:23:18;;;;;;;7.30;1.13;;;;;;;;;;6206801;23;20145;-79
2023/02/24 09:25:48;;;;;;;4.00;1.10;;;;;;;;;;6204963;23;20248;-80
2023/02/24 09:28:23;;;;;;;3.23;0.90;;;;;;;;;;6206934;23;20252;-80
2023/02/24 09:30:52;;;;;;;5.00;1.10;;;;;;;;;;6205409;23;20184;-78
2023/02/24 09:33:24;;;;;;;4.00;1.80;;;;;;;;;;6205821;23;20189;-77
2023/02/24 09:35:52;;;;;;;3.90;1.00;;;;;;;;;;6204094;23;20178;-77
2023/02/24 09:38:19;;;;;;;4.53;1.03;;;;;;;;;;6204090;23;20166;-76
2023/02/24 09:40:49;;;;;;;2.33;1.10;;;;;;;;;;6205239;23;20237;-77
2023/02/24 09:43:18;;;;;;;3.20;1.10;;;;;;;;;;6206496;23;20217;-77
2023/02/24 09:45:59;;;;;;;5.73;1.30;;;;;;;;;;6203168;23;20547;-77
2023/02/24 09:48:30;;;;;;;3.50;1.17;;;;;;;;;;6205633;23;20236;-78
2023/02/24 09:51:02;;;;;;;6.13;1.43;;;;;;;;;;6207646;23;20549;-78
2023/02/24 09:53:37;;;;;;;4.07;1.00;;;;;;;;;;6206647;23;20201;-80
2023/02/24 09:56:05;;;;;;;5.33;1.10;;;;;;;;;;6207153;23;20170;-78
2023/02/24 09:58:46;;;;;;;6.90;1.50;;;;;;;;;;6203136;23;20288;-79
2023/02/24 10:01:31;;;;;;;5.73;1.17;;;;;;;;;;6204836;23;20135;-80
2023/02/24 10:04:05;;;;;;;5.37;1.20;;;;;;;;;;6204453;23;20253;-79
2023/02/24 10:06:37;;;;;;;8.27;1.40;;;;;;;;;;6204212;23;20154;-80
2023/02/24 10:09:11;;;;;;;4.23;1.20;;;;;;;;;;6206695;23;20703;-78
2023/02/24 10:11:52;;;;;;;10.03;1.50;;;;;;;;;;6206943;23;20265;-79
2023/02/24 10:14:24;;;;;;;5.80;1.30;;;;;;;;;;6209944;23;20138;-79
2023/02/24 10:17:21;;;;;;;6.77;1.40;;;;;;;;;;6208830;23;20178;-79
2023/02/24 10:19:40;;;;;;;4.37;1.00;;;;;;;;;;6206481;23;20162;-79
2023/02/24 10:22:21;;;;;;;4.83;1.13;;;;;;;;;;6206045;23;20142;-78
2023/02/24 10:24:49;;;;;;;8.13;1.63;;;;;;;;;;6207419;23;20642;-77
2023/02/24 10:27:38;;;;;;;7.00;1.57;;;;;;;;;;6204389;23;20181;-77
2023/02/24 10:30:09;;;;;;;6.30;1.33;;;;;;;;;;6207232;23;20139;-78
2023/02/24 10:32:51;;;;;;;3.30;1.23;;;;;;;;;;6204656;23;20143;-77
2023/02/24 10:35:19;;;;;;;5.50;1.00;;;;;;;;;;6203133;23;20242;-78
2023/02/24 10:37:45;;;;;;;3.27;1.23;;;;;;;;;;6204311;23;20190;-77
2023/02/24 10:40:16;;;;;;;6.90;1.50;;;;;;;;;;6205085;23;20189;-78
2023/02/24 10:42:47;;;;;;;5.03;1.63;;;;;;;;;;6204412;23;20226;-78
2023/02/24 10:45:16;;;;;;;7.30;1.53;;;;;;;;;;6205082;23;20134;-78
2023/02/24 10:47:44;;;;;;;6.60;1.40;;;;;;;;;;6203718;23;20543;-79
2023/02/24 10:50:22;;;;;;;7.27;2.00;;;;;;;;;;6205023;23;20135;-78
2023/02/24 10:55:27;;;;;;;5.70;1.43;;;;;;;;;;6215127;23;20193;-78
2023/02/24 10:58:06;;;;;;;9.03;1.77;;;;;;;;;;6205759;23;20212;-78
2023/02/24 11:04:00;;;;;;;8.43;2.23;;;;;;;;;;6214970;23;20203;-79
2023/02/24 11:06:51;;;;;;;5.73;2.50;;;;;;;;;;6205437;23;20477;-78
2023/02/24 11:17:37;;;;;;;10.10;1.97;;;;;;;;;;6210656;23;20213;-80
2023/02/24 11:20:16;;;;;;;6.20;1.77;;;;;;;;;;6209689;23;20678;-78
2023/02/24 11:22:42;;;;;;;8.63;2.30;;;;;;;;;;6209624;23;20200;-81
2023/02/24 11:25:16;;;;;;;5.23;2.17;;;;;;;;;;6207231;23;20177;-81
2023/02/24 11:27:43;;;;;;;5.53;1.80;;;;;;;;;;6201155;23;20189;-83
2023/02/24 11:30:21;;;;;;;5.50;1.60;;;;;;;;;;6207342;23;20139;-78
2023/02/24 11:32:53;;;;;;;7.00;1.80;;;;;;;;;;6203451;23;20224;-78
2023/02/24 11:35:43;;;;;;;7.13;1.70;;;;;;;;;;6206168;23;20146;-79
2023/02/24 11:38:26;;;;;;;7.17;1.90;;;;;;;;;;6206269;23;20177;-79
2023/02/24 11:40:56;;;;;;;6.90;1.80;;;;;;;;;;6207139;23;20146;-81
2023/02/24 11:43:27;;;;;;;8.37;2.10;;;;;;;;;;6205622;23;20210;-80
2023/02/24 11:45:53;;;;;;;5.47;2.23;;;;;;;;;;6204241;23;20185;-79
2023/02/24 11:48:22;;;;;;;5.83;2.00;;;;;;;;;;6205194;23;20178;-81
2023/02/24 11:51:07;;;;;;;8.73;2.37;;;;;;;;;;6205683;23;20150;-80
2023/02/24 11:53:56;;;;;;;5.30;1.70;;;;;;;;;;6204572;23;20181;-78
2023/02/24 11:56:31;;;;;;;4.30;1.60;;;;;;;;;;6202056;23;20185;-80
2023/02/24 11:59:00;;;;;;;4.10;1.90;;;;;;;;;;6205345;23;20654;-79
2023/02/24 12:01:30;;;;;;;4.93;1.90;;;;;;;;;;6208372;23;20374;-81
2023/02/24 12:04:06;;;;;;;6.40;2.13;;;;;;;;;;6205925;23;20234;-81
2023/02/24 12:06:55;;;;;;;7.67;2.00;;;;;;;;;;6204618;23;20196;-78
2023/02/24 12:09:23;;;;;;;6.37;2.20;;;;;;;;;;6167025;23;20162;-80
2023/02/24 12:11:56;;;;;;;4.80;2.00;;;;;;;;;;6207187;23;20162;-80
2023/02/24 12:14:29;;;;;;;5.20;1.83;;;;;;;;;;6214323;23;20131;-81
2023/02/24 12:17:24;;;;;;;5.30;2.20;;;;;;;;;;6215574;23;20147;-82
2023/02/24 12:20:04;;;;;;;2.90;2.00;;;;;;;;;;6108752;23;20197;-81
2023/02/24 12:22:51;;;;;;;3.03;2.20;;;;;;;;;;6213504;23;20139;-78
2023/02/24 12:25:18;;;;;;;4.50;2.20;;;;;;;;;;6207288;23;20167;-81
2023/02/24 12:27:51;;;;;;;4.70;1.97;;;;;;;;;;6206791;23;20611;-78
2023/02/24 12:30:21;;;;;;;6.13;2.30;;;;;;;;;;6210377;23;21010;-82
2023/02/24 12:32:53;;;;;;;3.63;1.83;;;;;;;;;;6212515;23;20130;-81
2023/02/24 12:35:35;;;;;;;5.13;2.30;;;;;;;;;;6214138;23;20150;-80
2023/02/24 12:38:16;;;;;;;4.73;2.30;;;;;;;;;;6211658;23;20181;-78
2023/02/24 12:40:44;;;;;;;4.87;2.20;;;;;;;;;;6203603;23;20280;-79
2023/02/24 12:43:13;;;;;;;3.67;2.43;;;;;;;;;;6206524;23;20185;-77
2023/02/24 12:45:46;;;;;;;7.80;3.00;;;;;;;;;;6202930;23;20154;-80
2023/02/24 12:48:25;;;;;;;4.27;2.43;;;;;;;;;;6204369;23;20184;-79
2023/02/24 12:50:57;;;;;;;5.17;2.90;;;;;;;;;;6204451;23;20192;-79
2023/02/24 12:53:28;;;;;;;7.20;3.00;;;;;;;;;;6206504;23;20189;-77
2023/02/24 12:56:00;;;;;;;5.80;2.53;;;;;;;;;;6204636;23;20150;-82
2023/02/24 12:58:30;;;;;;;4.07;2.50;;;;;;;;;;6200940;23;20182;-78
2023/02/24 13:01:10;;;;;;;4.17;2.20;;;;;;;;;;6205131;23;20218;-79
2023/02/24 13:03:39;;;;;;;4.17;2.10;;;;;;;;;;6204397;23;20237;-79
2023/02/24 13:06:09;;;;;;;3.00;2.33;;;;;;;;;;6203393;23;20182;-80
2023/02/24 13:08:44;;;;;;;4.17;2.33;;;;;;;;;;6202721;23;20180;-80
2023/02/24 13:11:22;;;;;;;4.07;2.60;;;;;;;;;;6203708;23;20188;-80
2023/02/24 13:13:55;;;;;;;3.03;2.80;;;;;;;;;;6204658;23;20702;-80
2023/02/24 13:16:29;;;;;;;5.33;2.50;;;;;;;;;;6205393;23;21111;-78
2023/02/24 13:19:04;;;;;;;4.30;2.30;;;;;;;;;;6204043;23;20181;-79
2023/02/24 13:21:30;;;;;;;2.83;2.50;;;;;;;;;;6204099;23;20161;-77
2023/02/24 13:23:59;;;;;;;3.97;2.30;;;;;;;;;;6205628;23;20154;-79
2023/02/24 13:26:26;;;;;;;3.97;2.50;;;;;;;;;;6203895;23;20212;-80
2023/02/24 13:29:00;;;;;;;2.90;2.40;;;;;;;;;;6207029;23;20174;-79
2023/02/24 13:31:26;;;;;;;3.17;2.50;;;;;;;;;;6207099;23;20150;-78
2023/02/24 13:33:58;;;;;;;2.93;2.50;;;;;;;;;;6206640;23;20150;-78
2023/02/24 13:36:25;;;;;;;7.17;3.17;;;;;;;;;;6202671;23;20154;-78
2023/02/24 13:38:54;;;;;;;5.23;3.20;;;;;;;;;;6205100;23;20686;-76
2023/02/24 13:41:26;;;;;;;2.93;2.60;;;;;;;;;;6206703;23;20139;-78
2023/02/24 13:43:59;;;;;;;4.83;3.37;;;;;;;;;;6205763;23;20150;-78
2023/02/24 13:46:29;;;;;;;3.97;3.03;;;;;;;;;;6204460;23;20212;-80
2023/02/24 13:48:59;;;;;;;3.67;2.67;;;;;;;;;;6206141;23;20197;-78
2023/02/24 13:51:45;;;;;;;3.37;2.70;;;;;;;;;;6206928;23;20150;-79
2023/02/24 13:54:26;;;;;;;3.00;2.67;;;;;;;;;;6203724;23;20607;-78
2023/02/24 13:56:58;;;;;;;3.73;2.83;;;;;;;;;;6204873;23;20201;-79
2023/02/24 13:59:33;;;;;;;3.27;2.83;;;;;;;;;;6204630;23;20190;-79
2023/02/24 14:02:01;;;;;;;3.73;2.90;;;;;;;;;;6204813;23;20161;-81
2023/02/24 14:04:29;;;;;;;4.07;2.67;;;;;;;;;;6204528;23;20208;-77
2023/02/24 14:06:57;;;;;;;3.57;3.20;;;;;;;;;;6206876;23;20262;-78
2023/02/24 14:09:26;;;;;;;3.20;2.97;;;;;;;;;;6207800;23;20150;-78
2023/02/24 14:11:57;;;;;;;3.00;2.80;;;;;;;;;;6207296;23;20150;-80
2023/02/24 14:14:23;;;;;;;3.10;2.90;;;;;;;;;;6207627;23;20150;-81
2023/02/24 14:16:50;;;;;;;4.67;3.10;;;;;;;;;;6207297;23;20154;-77
2023/02/24 14:19:16;;;;;;;3.30;3.00;;;;;;;;;;6206909;23;20151;-78
2023/02/24 14:21:49;;;;;;;3.77;3.47;;;;;;;;;;6207005;23;20245;-77
2023/02/24 14:24:16;;;;;;;3.47;3.17;;;;;;;;;;6204444;23;20158;-78
2023/02/24 14:26:48;;;;;;;3.67;3.33;;;;;;;;;;6206471;23;21009;-77
2023/02/24 14:29:17;;;;;;;3.83;3.50;;;;;;;;;;6207323;23;20185;-78
2023/02/24 14:31:47;;;;;;;4.40;3.90;;;;;;;;;;6207753;23;20157;-77
2023/02/24 14:34:17;;;;;;;4.17;3.77;;;;;;;;;;6202824;23;20150;-79
2023/02/24 14:36:44;;;;;;;4.47;4.07;;;;;;;;;;6207160;23;20155;-81
2023/02/24 14:39:28;;;;;;;4.60;4.20;;;;;;;;;;6207662;23;20248;-80
2023/02/24 14:42:23;;;;;;;4.23;3.87;;;;;;;;;;6206989;23;20493;-81
2023/02/24 14:44:53;;;;;;;4.43;4.03;;;;;;;;;;6179397;23;20225;-78
2023/02/24 14:47:22;;;;;;;4.67;4.20;;;;;;;;;;6201557;23;20221;-80
2023/02/24 14:49:52;;;;;;;4.13;3.70;;;;;;;;;;6205861;23;20143;-79
2023/02/24 14:52:18;;;;;;;3.80;3.50;;;;;;;;;;6206434;23;20139;-81
2023/02/24 14:54:56;;;;;;;4.10;3.70;;;;;;;;;;6204156;23;20159;-79
2023/02/24 14:57:25;;;;;;;4.50;4.10;;;;;;;;;;6205084;23;20196;-80
2023/02/24 14:59:55;;;;;;;4.67;4.17;;;;;;;;;;6205464;23;20146;-79
2023/02/24 15:02:25;;;;;;;4.40;4.00;;;;;;;;;;6205729;23;20150;-80
2023/02/24 15:04:53;;;;;;;4.40;4.00;;;;;;;;;;6203801;23;20174;-78
2023/02/24 15:07:23;;;;;;;4.40;4.10;;;;;;;;;;6205526;23;20186;-79
2023/02/24 15:09:50;;;;;;;4.27;3.87;;;;;;;;;;6205742;23;20169;-80
2023/02/24 15:12:21;;;;;;;4.80;4.40;;;;;;;;;;6203869;23;20162;-81
2023/02/24 15:14:50;;;;;;;4.83;4.43;;;;;;;;;;6207855;23;20150;-78
2023/02/24 15:17:17;;;;;;;4.57;4.20;;;;;;;;;;6207536;23;20245;-77
2023/02/24 15:19:53;;;;;;;4.90;4.50;;;;;;;;;;6207475;23;20248;-80
2023/02/24 15:22:24;;;;;;;4.70;4.20;;;;;;;;;;6209183;23;20150;-82